createdAt,value
2023-04-01T00:00:57.678Z,34.45
2023-04-01T00:01:57.760Z,34.43
2023-04-01T00:02:57.927Z,34.43
2023-04-01T00:03:57.939Z,34.42
2023-04-01T00:04:57.973Z,34.45
2023-04-01T00:05:58.045Z,34.45
2023-04-01T00:06:58.115Z,34.43
2023-04-01T00:07:58.209Z,34.42
2023-04-01T00:08:58.263Z,34.39
2023-04-01T00:09:58.338Z,34.34
2023-04-01T00:10:58.408Z,34.38
2023-04-01T00:11:58.544Z,34.36
2023-04-01T00:12:59.515Z,34.41
2023-04-01T00:13:58.640Z,34.36
2023-04-01T00:14:58.849Z,34.35
2023-04-01T00:16:00.117Z,34.37
2023-04-01T00:16:58.873Z,34.37
2023-04-01T00:17:58.941Z,34.34
2023-04-01T00:18:58.993Z,34.34
2023-04-01T00:19:59.067Z,34.32
2023-04-01T00:20:59.144Z,34.31
2023-04-01T00:21:59.207Z,34.34
2023-04-01T00:22:59.282Z,34.31
2023-04-01T00:23:59.350Z,34.34
2023-04-01T00:24:59.427Z,34.30
2023-04-01T00:25:59.506Z,34.30
2023-04-01T00:26:59.576Z,34.30
2023-04-01T00:27:59.649Z,34.30
2023-04-01T00:28:59.719Z,34.30
2023-04-01T00:29:59.792Z,34.30
2023-04-01T00:30:59.867Z,34.27
2023-04-01T00:32:00.072Z,34.32
2023-04-01T00:33:00.037Z,34.30
2023-04-01T00:34:00.146Z,34.32
2023-04-01T00:35:00.169Z,34.34
2023-04-01T00:36:00.272Z,34.31
2023-04-01T00:37:00.375Z,34.28
2023-04-01T00:38:00.392Z,34.30
2023-04-01T00:39:00.480Z,34.29
2023-04-01T00:40:00.542Z,34.28
2023-04-01T00:41:00.656Z,34.28
2023-04-01T00:42:00.699Z,34.27
2023-04-01T00:43:00.776Z,34.21
2023-04-01T00:44:00.835Z,34.22
2023-04-01T00:45:01.198Z,34.23
2023-04-01T00:46:00.997Z,34.28
2023-04-01T00:47:01.082Z,34.25
2023-04-01T00:48:01.193Z,34.28
2023-04-01T00:49:01.186Z,34.25
2023-04-01T00:50:01.290Z,34.27
2023-04-01T00:51:01.342Z,34.27
2023-04-01T00:52:01.416Z,34.23
2023-04-01T00:53:01.482Z,34.21
2023-04-01T00:54:01.563Z,34.24
2023-04-01T00:55:02.068Z,34.21
2023-04-01T00:56:01.711Z,34.24
2023-04-01T00:57:01.893Z,34.21
2023-04-01T00:58:01.873Z,34.20
2023-04-01T00:59:01.943Z,34.18
2023-04-01T01:00:02.109Z,34.17
2023-04-01T01:01:02.206Z,34.22
2023-04-01T01:02:02.190Z,34.21
2023-04-01T01:03:02.270Z,34.23
2023-04-01T01:04:02.313Z,34.17
2023-04-01T01:05:02.397Z,34.18
2023-04-01T01:06:02.464Z,34.15
2023-04-01T01:07:02.536Z,34.14
2023-04-01T01:08:02.612Z,34.17
2023-04-01T01:09:02.677Z,34.17
2023-04-01T01:10:02.758Z,34.20
2023-04-01T01:11:02.840Z,34.18
2023-04-01T01:12:02.900Z,34.17
2023-04-01T01:13:02.979Z,34.14
2023-04-01T01:14:03.050Z,34.16
2023-04-01T01:15:03.124Z,34.14
2023-04-01T01:16:03.208Z,34.14
2023-04-01T01:17:03.280Z,34.13
2023-04-01T01:18:03.411Z,34.16
2023-04-01T01:19:03.433Z,34.13
2023-04-01T01:20:07.658Z,34.14
2023-04-01T01:21:04.540Z,34.14
2023-04-01T01:22:03.516Z,34.13
2023-04-01T01:23:03.531Z,34.11
2023-04-01T01:24:03.548Z,34.15
2023-04-01T01:25:03.620Z,34.14
2023-04-01T01:26:03.571Z,34.13
2023-04-01T01:27:03.579Z,34.12
2023-04-01T01:28:03.600Z,34.11
2023-04-01T01:29:03.667Z,34.11
2023-04-01T01:30:03.751Z,34.10
2023-04-01T01:31:03.880Z,34.13
2023-04-01T01:32:03.895Z,34.11
2023-04-01T01:33:04.040Z,34.07
2023-04-01T01:34:04.048Z,34.09
2023-04-01T01:35:04.128Z,34.10
2023-04-01T01:36:04.247Z,34.06
2023-04-01T01:37:04.267Z,34.09
2023-04-01T01:38:04.345Z,34.06
2023-04-01T01:39:04.429Z,34.09
2023-04-01T01:40:04.493Z,34.07
2023-04-01T01:41:04.548Z,34.09
2023-04-01T01:42:04.616Z,34.09
2023-04-01T01:43:04.691Z,34.04
2023-04-01T01:44:04.748Z,34.09
2023-04-01T01:45:04.847Z,34.07
2023-04-01T01:46:04.921Z,34.09
2023-04-01T01:47:04.990Z,34.05
2023-04-01T01:48:05.103Z,34.05
2023-04-01T01:49:05.526Z,34.06
2023-04-01T01:50:05.234Z,34.05
2023-04-01T01:51:05.305Z,34.04
2023-04-01T01:52:05.379Z,34.01
2023-04-01T01:53:05.459Z,34.04
2023-04-01T01:54:05.521Z,34.04
2023-04-01T01:55:05.630Z,34.03
2023-04-01T01:56:05.663Z,34.07
2023-04-01T01:57:05.777Z,34.04
2023-04-01T01:58:05.822Z,33.97
2023-04-01T01:59:05.905Z,34.01
2023-04-01T02:00:05.976Z,34.04
2023-04-01T02:01:06.097Z,34.01
2023-04-01T02:02:06.133Z,34.03
2023-04-01T02:03:06.249Z,34.07
2023-04-01T02:04:06.366Z,34.00
2023-04-01T02:05:06.372Z,34.05
2023-04-01T02:06:06.449Z,34.01
2023-04-01T02:07:06.514Z,33.99
2023-04-01T02:08:06.603Z,34.03
2023-04-01T02:09:06.687Z,33.94
2023-04-01T02:10:06.771Z,34.03
2023-04-01T02:11:06.840Z,33.97
2023-04-01T02:12:06.999Z,34.00
2023-04-01T02:13:06.995Z,33.99
2023-04-01T02:14:07.083Z,34.01
2023-04-01T02:15:07.158Z,34.00
2023-04-01T02:16:07.234Z,33.97
2023-04-01T02:17:07.292Z,33.99
2023-04-01T02:18:07.399Z,33.97
2023-04-01T02:19:07.453Z,33.93
2023-04-01T02:20:07.524Z,33.96
2023-04-01T02:21:07.604Z,33.96
2023-04-01T02:22:07.684Z,33.98
2023-04-01T02:23:07.768Z,33.93
2023-04-01T02:24:07.817Z,33.96
2023-04-01T02:25:07.893Z,33.91
2023-04-01T02:26:07.982Z,33.93
2023-04-01T02:27:08.030Z,33.93
2023-04-01T02:28:08.166Z,33.93
2023-04-01T02:29:08.173Z,33.91
2023-04-01T02:30:08.249Z,33.93
2023-04-01T02:31:08.340Z,33.92
2023-04-01T02:32:08.426Z,33.86
2023-04-01T02:33:08.518Z,33.91
2023-04-01T02:34:08.558Z,33.91
2023-04-01T02:35:08.645Z,33.91
2023-04-01T02:36:08.744Z,33.91
2023-04-01T02:37:08.792Z,33.88
2023-04-01T02:38:08.890Z,33.88
2023-04-01T02:39:08.953Z,33.88
2023-04-01T02:40:09.054Z,33.85
2023-04-01T02:41:09.095Z,33.89
2023-04-01T02:42:09.176Z,33.86
2023-04-01T02:43:09.283Z,33.89
2023-04-01T02:44:09.317Z,33.89
2023-04-01T02:45:09.400Z,33.86
2023-04-01T02:46:09.495Z,33.89
2023-04-01T02:47:09.582Z,33.87
2023-04-01T02:48:09.624Z,33.86
2023-04-01T02:49:09.686Z,33.91
2023-04-01T02:50:09.767Z,33.92
2023-04-01T02:51:09.836Z,33.88
2023-04-01T02:52:09.907Z,33.90
2023-04-01T02:53:10.000Z,33.86
2023-04-01T02:54:10.040Z,33.88
2023-04-01T02:55:10.136Z,33.83
2023-04-01T02:56:10.264Z,33.86
2023-04-01T02:57:10.274Z,33.82
2023-04-01T02:58:10.356Z,33.85
2023-04-01T02:59:10.428Z,33.81
2023-04-01T03:00:10.490Z,33.83
2023-04-01T03:01:10.567Z,33.82
2023-04-01T03:02:10.654Z,33.78
2023-04-01T03:03:10.813Z,33.86
2023-04-01T03:04:10.789Z,33.83
2023-04-01T03:05:10.877Z,33.81
2023-04-01T03:06:10.961Z,33.79
2023-04-01T03:07:11.030Z,33.82
2023-04-01T03:08:11.099Z,33.81
2023-04-01T03:09:11.176Z,33.82
2023-04-01T03:10:11.254Z,33.78
2023-04-01T03:11:11.533Z,33.82
2023-04-01T03:12:11.404Z,33.79
2023-04-01T03:13:11.476Z,33.81
2023-04-01T03:14:11.606Z,33.85
2023-04-01T03:15:11.763Z,33.83
2023-04-01T03:16:11.714Z,33.82
2023-04-01T03:17:11.813Z,33.85
2023-04-01T03:18:12.523Z,33.82
2023-04-01T03:19:11.985Z,33.81
2023-04-01T03:20:12.055Z,33.79
2023-04-01T03:21:12.064Z,33.74
2023-04-01T03:22:12.134Z,33.75
2023-04-01T03:23:12.221Z,33.79
2023-04-01T03:24:12.300Z,33.79
2023-04-01T03:25:12.379Z,33.77
2023-04-01T03:26:12.462Z,33.78
2023-04-01T03:27:12.530Z,33.79
2023-04-01T03:28:12.612Z,33.75
2023-04-01T03:29:12.692Z,33.75
2023-04-01T03:30:12.828Z,33.78
2023-04-01T03:31:12.880Z,33.72
2023-04-01T03:32:12.922Z,33.74
2023-04-01T03:33:13.009Z,33.75
2023-04-01T03:34:13.082Z,33.76
2023-04-01T03:35:13.213Z,33.76
2023-04-01T03:36:13.303Z,33.75
2023-04-01T03:37:13.385Z,33.76
2023-04-01T03:38:13.385Z,33.72
2023-04-01T03:39:13.487Z,33.76
2023-04-01T03:40:14.023Z,33.81
2023-04-01T03:41:13.646Z,33.79
2023-04-01T03:42:13.702Z,33.82
2023-04-01T03:43:13.920Z,33.76
2023-04-01T03:44:13.852Z,33.72
2023-04-01T03:45:13.928Z,33.75
2023-04-01T03:46:14.014Z,33.72
2023-04-01T03:47:14.070Z,33.71
2023-04-01T03:48:14.156Z,33.75
2023-04-01T03:49:14.225Z,33.71
2023-04-01T03:50:14.289Z,33.71
2023-04-01T03:51:14.448Z,33.71
2023-04-01T03:52:14.446Z,33.73
2023-04-01T03:53:14.527Z,33.70
2023-04-01T03:54:14.595Z,33.71
2023-04-01T03:55:14.676Z,33.75
2023-04-01T03:56:14.759Z,33.71
2023-04-01T03:57:14.842Z,33.71
2023-04-01T03:58:14.886Z,33.72
2023-04-01T03:59:15.590Z,33.68
2023-04-01T04:00:15.050Z,33.69
2023-04-01T04:01:15.121Z,33.72
2023-04-01T04:02:15.232Z,33.72
2023-04-01T04:03:15.340Z,33.71
2023-04-01T04:04:15.402Z,33.72
2023-04-01T04:05:15.419Z,33.73
2023-04-01T04:06:15.548Z,33.73
2023-04-01T04:07:15.562Z,33.72
2023-04-01T04:08:15.652Z,33.67
2023-04-01T04:09:15.719Z,33.72
2023-04-01T04:10:15.807Z,33.71
2023-04-01T04:11:15.872Z,33.67
2023-04-01T04:12:15.941Z,33.69
2023-04-01T04:13:16.033Z,33.73
2023-04-01T04:14:16.194Z,33.69
2023-04-01T04:15:16.179Z,33.70
2023-04-01T04:16:16.274Z,33.69
2023-04-01T04:17:16.341Z,33.66
2023-04-01T04:18:16.419Z,33.65
2023-04-01T04:19:16.635Z,33.72
2023-04-01T04:20:16.591Z,33.71
2023-04-01T04:21:17.529Z,33.66
2023-04-01T04:22:16.720Z,33.68
2023-04-01T04:23:16.815Z,33.65
2023-04-01T04:24:16.879Z,33.67
2023-04-01T04:25:16.976Z,33.68
2023-04-01T04:26:17.044Z,33.67
2023-04-01T04:27:17.121Z,33.68
2023-04-01T04:28:17.177Z,33.62
2023-04-01T04:29:17.249Z,33.69
2023-04-01T04:30:17.323Z,33.65
2023-04-01T04:31:17.412Z,33.65
2023-04-01T04:32:17.491Z,33.64
2023-04-01T04:33:17.563Z,33.66
2023-04-01T04:34:17.630Z,33.67
2023-04-01T04:35:17.765Z,33.64
2023-04-01T04:36:17.848Z,33.66
2023-04-01T04:37:17.879Z,33.65
2023-04-01T04:38:17.971Z,33.65
2023-04-01T04:39:18.040Z,33.67
2023-04-01T04:40:18.120Z,33.68
2023-04-01T04:41:18.177Z,33.66
2023-04-01T04:42:18.525Z,33.65
2023-04-01T04:43:18.333Z,33.66
2023-04-01T04:44:18.403Z,33.65
2023-04-01T04:45:18.492Z,33.65
2023-04-01T04:46:18.557Z,33.57
2023-04-01T04:47:18.739Z,33.61
2023-04-01T04:48:18.683Z,33.64
2023-04-01T04:49:18.761Z,33.67
2023-04-01T04:50:18.820Z,33.58
2023-04-01T04:51:18.903Z,33.65
2023-04-01T04:52:18.978Z,33.58
2023-04-01T04:53:19.067Z,33.62
2023-04-01T04:54:19.113Z,33.64
2023-04-01T04:55:19.212Z,33.61
2023-04-01T04:56:19.276Z,33.65
2023-04-01T04:57:19.374Z,33.60
2023-04-01T04:58:19.509Z,33.61
2023-04-01T04:59:19.504Z,33.57
2023-04-01T05:00:19.592Z,33.62
2023-04-01T05:01:19.662Z,33.65
2023-04-01T05:02:19.741Z,33.60
2023-04-01T05:03:19.847Z,33.67
2023-04-01T05:04:19.866Z,33.65
2023-04-01T05:05:19.961Z,33.60
2023-04-01T05:06:21.538Z,33.62
2023-04-01T05:07:20.025Z,33.61
2023-04-01T05:08:20.039Z,33.64
2023-04-01T05:09:20.046Z,33.64
2023-04-01T05:10:20.044Z,33.57
2023-04-01T05:11:20.052Z,33.57
2023-04-01T05:12:20.054Z,33.58
2023-04-01T05:13:20.084Z,33.56
2023-04-01T05:14:21.015Z,33.56
2023-04-01T05:15:20.075Z,33.60
2023-04-01T05:16:20.101Z,33.54
2023-04-01T05:17:20.156Z,33.54
2023-04-01T05:18:20.123Z,33.53
2023-04-01T05:19:20.126Z,33.53
2023-04-01T05:20:20.126Z,33.57
2023-04-01T05:21:20.136Z,33.55
2023-04-01T05:22:20.158Z,33.53
2023-04-01T05:23:20.156Z,33.54
2023-04-01T05:24:20.204Z,33.54
2023-04-01T05:25:20.191Z,33.55
2023-04-01T05:26:20.217Z,33.60
2023-04-01T05:27:20.210Z,33.54
2023-04-01T05:28:20.237Z,33.55
2023-04-01T05:29:20.225Z,33.54
2023-04-01T05:30:20.244Z,33.54
2023-04-01T05:31:20.271Z,33.55
2023-04-01T05:32:20.259Z,33.57
2023-04-01T05:33:20.246Z,33.54
2023-04-01T05:34:20.259Z,33.57
2023-04-01T05:35:20.265Z,33.58
2023-04-01T05:36:20.269Z,33.51
2023-04-01T05:37:20.299Z,33.54
2023-04-01T05:38:20.379Z,33.52
2023-04-01T05:39:20.450Z,33.58
2023-04-01T05:40:20.545Z,33.53
2023-04-01T05:41:20.589Z,33.50
2023-04-01T05:42:20.657Z,33.54
2023-04-01T05:43:20.721Z,33.50
2023-04-01T05:44:20.794Z,33.57
2023-04-01T05:45:20.841Z,33.55
2023-04-01T05:46:20.935Z,33.53
2023-04-01T05:47:20.975Z,33.53
2023-04-01T05:48:20.978Z,33.54
2023-04-01T05:49:21.059Z,33.57
2023-04-01T05:50:21.157Z,33.55
2023-04-01T05:51:21.202Z,33.55
2023-04-01T05:52:21.276Z,33.50
2023-04-01T05:53:21.352Z,33.54
2023-04-01T05:54:21.419Z,33.55
2023-04-01T05:55:21.483Z,33.44
2023-04-01T05:56:21.548Z,33.51
2023-04-01T05:57:21.657Z,33.54
2023-04-01T05:58:21.678Z,33.47
2023-04-01T05:59:21.750Z,33.51
2023-04-01T06:00:21.841Z,33.54
2023-04-01T06:01:21.914Z,33.52
2023-04-01T06:02:22.055Z,33.49
2023-04-01T06:03:22.127Z,33.53
2023-04-01T06:04:22.140Z,33.51
2023-04-01T06:05:22.174Z,33.51
2023-04-01T06:06:22.234Z,33.54
2023-04-01T06:07:22.314Z,33.57
2023-04-01T06:08:22.385Z,33.52
2023-04-01T06:09:22.448Z,33.47
2023-04-01T06:10:23.088Z,33.48
2023-04-01T06:11:22.599Z,33.48
2023-04-01T06:12:22.681Z,33.47
2023-04-01T06:13:22.812Z,33.52
2023-04-01T06:14:22.811Z,33.50
2023-04-01T06:15:22.886Z,33.51
2023-04-01T06:16:23.050Z,33.48
2023-04-01T06:17:23.071Z,33.50
2023-04-01T06:18:23.134Z,33.54
2023-04-01T06:19:23.185Z,33.48
2023-04-01T06:20:23.278Z,33.52
2023-04-01T06:21:23.410Z,33.47
2023-04-01T06:22:23.422Z,33.50
2023-04-01T06:23:23.498Z,33.45
2023-04-01T06:24:23.570Z,33.50
2023-04-01T06:25:23.669Z,33.50
2023-04-01T06:26:23.726Z,33.47
2023-04-01T06:27:24.570Z,33.44
2023-04-01T06:28:23.898Z,33.47
2023-04-01T06:29:24.078Z,33.48
2023-04-01T06:30:24.033Z,33.45
2023-04-01T06:31:24.169Z,33.47
2023-04-01T06:32:24.228Z,33.45
2023-04-01T06:33:24.244Z,33.47
2023-04-01T06:34:24.309Z,33.44
2023-04-01T06:35:24.402Z,33.44
2023-04-01T06:36:24.543Z,33.44
2023-04-01T06:37:24.538Z,33.42
2023-04-01T06:38:24.612Z,33.43
2023-04-01T06:39:24.694Z,33.38
2023-04-01T06:40:24.776Z,33.41
2023-04-01T06:41:24.842Z,33.38
2023-04-01T06:42:24.927Z,33.45
2023-04-01T06:43:25.006Z,33.46
2023-04-01T06:44:25.102Z,33.44
2023-04-01T06:45:25.169Z,33.45
2023-04-01T06:46:25.312Z,33.43
2023-04-01T06:47:25.378Z,33.43
2023-04-01T06:48:25.385Z,33.44
2023-04-01T06:49:25.547Z,33.40
2023-04-01T06:50:25.520Z,33.44
2023-04-01T06:51:25.595Z,33.45
2023-04-01T06:52:25.670Z,33.44
2023-04-01T06:53:25.836Z,33.45
2023-04-01T06:54:25.832Z,33.45
2023-04-01T06:55:25.950Z,33.41
2023-04-01T06:56:25.977Z,33.47
2023-04-01T06:57:26.127Z,33.41
2023-04-01T06:58:26.155Z,33.44
2023-04-01T06:59:26.230Z,33.45
2023-04-01T07:00:26.305Z,33.40
2023-04-01T07:01:26.413Z,33.39
2023-04-01T07:02:26.529Z,33.40
2023-04-01T07:03:26.534Z,33.39
2023-04-01T07:04:26.659Z,33.32
2023-04-01T07:05:26.710Z,33.36
2023-04-01T07:06:26.769Z,33.36
2023-04-01T07:07:26.848Z,33.41
2023-04-01T07:08:26.911Z,33.38
2023-04-01T07:09:27.035Z,33.38
2023-04-01T07:10:27.055Z,33.41
2023-04-01T07:11:27.143Z,33.40
2023-04-01T07:12:27.222Z,33.36
2023-04-01T07:13:27.297Z,33.34
2023-04-01T07:14:27.491Z,33.33
2023-04-01T07:15:27.441Z,33.32
2023-04-01T07:16:27.554Z,33.36
2023-04-01T07:17:27.643Z,33.38
2023-04-01T07:18:27.664Z,33.35
2023-04-01T07:19:27.734Z,33.34
2023-04-01T07:20:27.803Z,33.35
2023-04-01T07:21:27.869Z,33.36
2023-04-01T07:22:27.939Z,33.41
2023-04-01T07:23:28.027Z,33.35
2023-04-01T07:24:28.105Z,33.33
2023-04-01T07:25:28.166Z,33.38
2023-04-01T07:26:28.998Z,33.41
2023-04-01T07:27:28.298Z,33.32
2023-04-01T07:28:28.365Z,33.35
2023-04-01T07:29:28.440Z,33.35
2023-04-01T07:30:28.486Z,33.36
2023-04-01T07:31:28.587Z,33.32
2023-04-01T07:32:28.651Z,33.30
2023-04-01T07:33:28.714Z,33.35
2023-04-01T07:34:28.780Z,33.32
2023-04-01T07:35:28.861Z,33.30
2023-04-01T07:36:28.919Z,33.27
2023-04-01T07:37:29.002Z,33.34
2023-04-01T07:38:29.209Z,33.27
2023-04-01T07:39:29.146Z,33.29
2023-04-01T07:40:29.195Z,33.32
2023-04-01T07:41:29.278Z,33.32
2023-04-01T07:42:29.348Z,33.32
2023-04-01T07:43:29.415Z,33.27
2023-04-01T07:44:29.998Z,33.34
2023-04-01T07:45:29.535Z,33.32
2023-04-01T07:46:29.645Z,33.32
2023-04-01T07:47:29.715Z,33.35
2023-04-01T07:48:29.813Z,33.27
2023-04-01T07:49:29.813Z,33.37
2023-04-01T07:50:29.881Z,33.35
2023-04-01T07:51:29.965Z,33.31
2023-04-01T07:52:30.036Z,33.31
2023-04-01T07:53:30.088Z,33.32
2023-04-01T07:54:30.168Z,33.30
2023-04-01T07:55:30.226Z,33.33
2023-04-01T07:56:30.281Z,33.37
2023-04-01T07:57:30.437Z,33.34
2023-04-01T07:58:30.379Z,33.31
2023-04-01T07:59:30.458Z,33.32
2023-04-01T08:00:30.537Z,33.31
2023-04-01T08:01:30.676Z,33.32
2023-04-01T08:02:30.844Z,33.32
2023-04-01T08:03:30.833Z,33.31
2023-04-01T08:04:30.859Z,33.29
2023-04-01T08:05:31.200Z,33.32
2023-04-01T08:06:30.984Z,33.35
2023-04-01T08:07:31.058Z,33.35
2023-04-01T08:08:31.136Z,33.33
2023-04-01T08:09:31.236Z,33.30
2023-04-01T08:10:31.506Z,33.29
2023-04-01T08:11:31.366Z,33.27
2023-04-01T08:12:31.464Z,33.34
2023-04-01T08:13:31.507Z,33.31
2023-04-01T08:14:31.577Z,33.33
2023-04-01T08:15:31.928Z,33.31
2023-04-01T08:16:31.811Z,33.32
2023-04-01T08:17:31.818Z,33.26
2023-04-01T08:18:31.884Z,33.24
2023-04-01T08:19:32.020Z,33.34
2023-04-01T08:20:32.034Z,33.29
2023-04-01T08:21:32.102Z,33.30
2023-04-01T08:22:32.173Z,33.31
2023-04-01T08:23:32.274Z,33.26
2023-04-01T08:24:44.393Z,33.26
2023-04-01T08:25:33.480Z,33.27
2023-04-01T08:26:32.336Z,33.31
2023-04-01T08:27:32.351Z,33.29
2023-04-01T08:28:32.335Z,33.31
2023-04-01T08:29:32.346Z,33.24
2023-04-01T08:30:32.366Z,33.24
2023-04-01T08:31:32.453Z,33.23
2023-04-01T08:32:32.416Z,33.22
2023-04-01T08:33:32.443Z,33.22
2023-04-01T08:34:33.001Z,33.29
2023-04-01T08:35:34.289Z,33.25
2023-04-01T08:36:32.659Z,33.24
2023-04-01T08:37:32.699Z,33.22
2023-04-01T08:38:32.611Z,33.15
2023-04-01T08:39:32.624Z,33.28
2023-04-01T08:40:32.626Z,33.23
2023-04-01T08:41:32.628Z,33.23
2023-04-01T08:42:32.649Z,33.22
2023-04-01T08:43:32.633Z,33.20
2023-04-01T08:44:32.648Z,33.15
2023-04-01T08:45:33.011Z,33.18
2023-04-01T08:46:32.658Z,33.21
2023-04-01T08:47:32.713Z,33.26
2023-04-01T08:48:32.701Z,33.20
2023-04-01T08:49:32.669Z,33.18
2023-04-01T08:50:32.714Z,33.20
2023-04-01T08:51:32.685Z,33.20
2023-04-01T08:52:32.702Z,33.17
2023-04-01T08:53:32.704Z,33.23
2023-04-01T08:54:32.708Z,33.20
2023-04-01T08:55:32.950Z,33.24
2023-04-01T08:56:32.738Z,33.23
2023-04-01T08:57:32.824Z,33.22
2023-04-01T08:58:32.810Z,33.17
2023-04-01T08:59:32.746Z,33.22
2023-04-01T09:00:32.774Z,33.19
2023-04-01T09:01:32.764Z,33.17
2023-04-01T09:02:32.886Z,33.19
2023-04-01T09:03:32.887Z,33.18
2023-04-01T09:04:32.924Z,33.20
2023-04-01T09:05:33.013Z,33.15
2023-04-01T09:06:32.802Z,33.16
2023-04-01T09:07:32.796Z,33.20
2023-04-01T09:08:32.815Z,33.12
2023-04-01T09:09:32.824Z,33.16
2023-04-01T09:10:32.827Z,33.17
2023-04-01T09:11:32.890Z,33.09
2023-04-01T09:12:32.892Z,33.14
2023-04-01T09:13:32.969Z,33.14
2023-04-01T09:14:33.046Z,33.11
2023-04-01T09:15:33.462Z,33.14
2023-04-01T09:16:33.389Z,33.22
2023-04-01T09:17:34.022Z,33.14
2023-04-01T09:18:33.314Z,33.17
2023-04-01T09:19:33.380Z,33.11
2023-04-01T09:20:33.449Z,33.14
2023-04-01T09:21:33.537Z,33.10
2023-04-01T09:22:33.597Z,33.13
2023-04-01T09:23:33.669Z,33.14
2023-04-01T09:24:33.817Z,33.14
2023-04-01T09:25:34.143Z,33.12
2023-04-01T09:26:33.894Z,33.12
2023-04-01T09:27:33.960Z,33.06
2023-04-01T09:28:34.036Z,33.11
2023-04-01T09:29:34.119Z,33.16
2023-04-01T09:30:34.193Z,33.16
2023-04-01T09:31:35.039Z,33.18
2023-04-01T09:32:34.425Z,33.11
2023-04-01T09:33:34.379Z,33.14
2023-04-01T09:34:34.468Z,33.14
2023-04-01T09:35:34.859Z,33.14
2023-04-01T09:36:34.684Z,33.14
2023-04-01T09:37:34.709Z,33.11
2023-04-01T09:38:34.741Z,33.17
2023-04-01T09:39:34.821Z,33.12
2023-04-01T09:40:34.877Z,33.11
2023-04-01T09:41:34.948Z,33.11
2023-04-01T09:42:35.016Z,33.10
2023-04-01T09:43:35.098Z,33.14
2023-04-01T09:44:35.166Z,33.11
2023-04-01T09:45:35.237Z,33.11
2023-04-01T09:46:35.354Z,33.12
2023-04-01T09:47:36.008Z,33.09
2023-04-01T09:48:35.454Z,33.13
2023-04-01T09:49:35.528Z,33.11
2023-04-01T09:50:35.592Z,33.12
2023-04-01T09:51:35.655Z,33.10
2023-04-01T09:52:35.733Z,33.16
2023-04-01T09:53:35.830Z,33.14
2023-04-01T09:54:35.872Z,33.11
2023-04-01T09:55:35.945Z,33.11
2023-04-01T09:56:36.026Z,33.08
2023-04-01T09:57:36.116Z,33.06
2023-04-01T09:58:43.965Z,33.05
2023-04-01T09:59:37.158Z,33.08
2023-04-01T10:00:36.163Z,33.07
2023-04-01T10:01:36.281Z,33.08
2023-04-01T10:02:36.264Z,33.08
2023-04-01T10:03:36.171Z,33.08
2023-04-01T10:04:36.179Z,33.11
2023-04-01T10:05:36.470Z,33.03
2023-04-01T10:06:36.188Z,33.08
2023-04-01T10:07:36.231Z,33.10
2023-04-01T10:08:36.304Z,33.08
2023-04-01T10:09:36.364Z,33.08
2023-04-01T10:10:36.431Z,33.05
2023-04-01T10:11:36.512Z,33.07
2023-04-01T10:12:36.567Z,33.07
2023-04-01T10:13:36.632Z,33.02
2023-04-01T10:14:36.695Z,33.08
2023-04-01T10:15:36.871Z,33.02
2023-04-01T10:16:36.941Z,33.04
2023-04-01T10:17:36.915Z,32.99
2023-04-01T10:18:36.979Z,33.02
2023-04-01T10:19:37.053Z,33.05
2023-04-01T10:20:37.133Z,33.02
2023-04-01T10:21:37.197Z,33.05
2023-04-01T10:22:37.267Z,33.02
2023-04-01T10:23:37.321Z,33.05
2023-04-01T10:24:37.404Z,33.01
2023-04-01T10:25:37.467Z,33.04
2023-04-01T10:26:37.528Z,33.00
2023-04-01T10:27:37.601Z,32.99
2023-04-01T10:28:37.686Z,32.99
2023-04-01T10:29:37.732Z,33.01
2023-04-01T10:30:37.806Z,33.01
2023-04-01T10:31:37.898Z,33.01
2023-04-01T10:32:37.973Z,32.99
2023-04-01T10:33:38.007Z,33.01
2023-04-01T10:34:38.498Z,33.01
2023-04-01T10:35:38.189Z,33.04
2023-04-01T10:36:38.210Z,33.01
2023-04-01T10:37:38.279Z,33.04
2023-04-01T10:38:38.344Z,33.02
2023-04-01T10:39:38.411Z,33.01
2023-04-01T10:40:39.002Z,33.05
2023-04-01T10:41:38.538Z,32.98
2023-04-01T10:42:39.489Z,33.02
2023-04-01T10:43:38.693Z,33.04
2023-04-01T10:44:38.756Z,33.02
2023-04-01T10:45:38.836Z,32.99
2023-04-01T10:46:38.908Z,32.99
2023-04-01T10:47:38.953Z,32.99
2023-04-01T10:48:39.027Z,33.01
2023-04-01T10:49:39.069Z,32.97
2023-04-01T10:50:39.132Z,32.99
2023-04-01T10:51:39.185Z,32.99
2023-04-01T10:52:39.997Z,33.02
2023-04-01T10:53:39.344Z,33.04
2023-04-01T10:54:39.389Z,33.01
2023-04-01T10:55:39.470Z,32.98
2023-04-01T10:56:39.525Z,32.96
2023-04-01T10:57:39.598Z,32.94
2023-04-01T10:58:39.670Z,32.97
2023-04-01T10:59:39.730Z,32.99
2023-04-01T11:00:39.793Z,32.97
2023-04-01T11:01:39.920Z,33.01
2023-04-01T11:02:40.126Z,32.92
2023-04-01T11:03:40.091Z,32.99
2023-04-01T11:04:40.042Z,32.98
2023-04-01T11:05:40.117Z,32.97
2023-04-01T11:06:40.176Z,32.90
2023-04-01T11:07:40.253Z,32.94
2023-04-01T11:08:40.323Z,32.93
2023-04-01T11:09:40.390Z,32.91
2023-04-01T11:10:40.472Z,32.92
2023-04-01T11:11:40.562Z,32.95
2023-04-01T11:12:40.606Z,32.95
2023-04-01T11:13:41.494Z,32.94
2023-04-01T11:14:40.761Z,32.94
2023-04-01T11:15:40.940Z,32.92
2023-04-01T11:16:40.967Z,32.94
2023-04-01T11:17:41.057Z,32.91
2023-04-01T11:18:41.079Z,32.98
2023-04-01T11:19:41.085Z,32.89
2023-04-01T11:20:41.151Z,32.92
2023-04-01T11:21:41.228Z,32.87
2023-04-01T11:22:41.295Z,32.87
2023-04-01T11:23:42.008Z,32.90
2023-04-01T11:24:41.446Z,32.89
2023-04-01T11:25:41.564Z,32.89
2023-04-01T11:26:41.618Z,32.92
2023-04-01T11:27:41.638Z,32.92
2023-04-01T11:28:41.710Z,32.92
2023-04-01T11:29:53.144Z,32.89
2023-04-01T11:30:42.997Z,32.94
2023-04-01T11:31:41.868Z,32.92
2023-04-01T11:32:42.518Z,32.90
2023-04-01T11:33:41.789Z,32.90
2023-04-01T11:34:41.798Z,32.89
2023-04-01T11:35:41.815Z,32.89
2023-04-01T11:36:41.851Z,32.91
2023-04-01T11:37:41.819Z,32.81
2023-04-01T11:38:41.893Z,32.87
2023-04-01T11:39:41.946Z,32.90
2023-04-01T11:40:42.021Z,32.92
2023-04-01T11:41:42.086Z,32.86
2023-04-01T11:42:42.146Z,32.89
2023-04-01T11:43:42.227Z,32.84
2023-04-01T11:44:42.374Z,32.86
2023-04-01T11:45:42.377Z,32.86
2023-04-01T11:46:42.522Z,32.78
2023-04-01T11:47:42.588Z,32.84
2023-04-01T11:48:43.818Z,32.89
2023-04-01T11:49:42.653Z,32.86
2023-04-01T11:50:42.747Z,32.86
2023-04-01T11:51:42.791Z,32.86
2023-04-01T11:52:42.853Z,32.87
2023-04-01T11:53:42.927Z,32.86
2023-04-01T11:54:42.995Z,32.86
2023-04-01T11:55:43.087Z,32.83
2023-04-01T11:56:43.150Z,32.83
2023-04-01T11:57:43.213Z,32.83
2023-04-01T11:58:43.306Z,32.84
2023-04-01T11:59:43.366Z,32.84
2023-04-01T12:00:43.444Z,32.87
2023-04-01T12:01:43.547Z,32.80
2023-04-01T12:02:43.681Z,32.80
2023-04-01T12:03:43.788Z,32.78
2023-04-01T12:04:43.778Z,32.80
2023-04-01T12:05:43.817Z,32.84
2023-04-01T12:06:43.889Z,32.84
2023-04-01T12:07:46.330Z,32.81
2023-04-01T12:08:44.068Z,32.83
2023-04-01T12:09:44.150Z,32.81
2023-04-01T12:10:44.222Z,32.78
2023-04-01T12:11:44.286Z,32.77
2023-04-01T12:12:54.159Z,32.80
2023-04-01T12:13:45.384Z,32.77
2023-04-01T12:14:44.411Z,32.83
2023-04-01T12:15:44.397Z,32.75
2023-04-01T12:16:44.436Z,32.72
2023-04-01T12:17:44.457Z,32.77
2023-04-01T12:18:44.416Z,32.81
2023-04-01T12:19:44.459Z,32.75
2023-04-01T12:20:44.431Z,32.80
2023-04-01T12:21:44.493Z,32.76
2023-04-01T12:22:44.568Z,32.78
2023-04-01T12:23:44.660Z,32.77
2023-04-01T12:24:44.716Z,32.78
2023-04-01T12:25:44.794Z,32.81
2023-04-01T12:26:44.885Z,32.78
2023-04-01T12:27:44.949Z,32.78
2023-04-01T12:28:45.021Z,32.70
2023-04-01T12:29:45.097Z,32.76
2023-04-01T12:30:45.167Z,32.80
2023-04-01T12:31:45.290Z,32.78
2023-04-01T12:32:45.317Z,32.77
2023-04-01T12:33:45.379Z,32.72
2023-04-01T12:34:45.453Z,32.70
2023-04-01T12:35:45.527Z,32.75
2023-04-01T12:36:45.601Z,32.78
2023-04-01T12:37:45.679Z,32.74
2023-04-01T12:38:45.734Z,32.70
2023-04-01T12:39:45.814Z,32.75
2023-04-01T12:40:46.000Z,32.73
2023-04-01T12:41:45.958Z,32.73
2023-04-01T12:42:46.060Z,32.76
2023-04-01T12:43:46.108Z,32.72
2023-04-01T12:44:46.182Z,32.73
2023-04-01T12:45:46.292Z,32.73
2023-04-01T12:46:46.339Z,32.70
2023-04-01T12:47:46.420Z,32.72
2023-04-01T12:48:46.477Z,32.73
2023-04-01T12:49:46.543Z,32.72
2023-04-01T12:50:46.623Z,32.66
2023-04-01T12:51:46.685Z,32.73
2023-04-01T12:52:46.809Z,32.64
2023-04-01T12:53:46.838Z,32.70